sensor_id;sensor_type;location;lat;lon;timestamp;pressure;altitude;pressure_sealevel;temperature;humidity
29461;BME280;16428;47.836;35.106;2024-02-26T00:02:18;102184.34;;;1.97;93.60
29461;BME280;16428;47.836;35.106;2024-02-26T00:04:46;102186.53;;;1.89;94.78
29461;BME280;16428;47.836;35.106;2024-02-26T00:07:13;102181.41;;;2.02;94.36
29461;BME280;16428;47.836;35.106;2024-02-26T00:09:40;102179.78;;;1.84;94.84
29461;BME280;16428;47.836;35.106;2024-02-26T00:12:07;102186.72;;;1.86;95.03
29461;BME280;16428;47.836;35.106;2024-02-26T00:14:35;102179.38;;;1.91;95.16
29461;BME280;16428;47.836;35.106;2024-02-26T00:17:02;102180.06;;;1.95;94.84
29461;BME280;16428;47.836;35.106;2024-02-26T00:19:29;102176.81;;;2.05;94.30
29461;BME280;16428;47.836;35.106;2024-02-26T00:21:56;102176.13;;;1.86;95.23
29461;BME280;16428;47.836;35.106;2024-02-26T00:24:23;102169.28;;;1.82;94.97
29461;BME280;16428;47.836;35.106;2024-02-26T00:26:50;102176.72;;;1.75;95.41
29461;BME280;16428;47.836;35.106;2024-02-26T00:29:21;102167.75;;;1.78;96.06
29461;BME280;16428;47.836;35.106;2024-02-26T00:31:49;102161.16;;;1.69;96.58
29461;BME280;16428;47.836;35.106;2024-02-26T00:34:16;102168.41;;;1.50;97.05
29461;BME280;16428;47.836;35.106;2024-02-26T00:36:43;102157.84;;;1.66;96.49
29461;BME280;16428;47.836;35.106;2024-02-26T00:39:11;102153.53;;;1.48;97.75
29461;BME280;16428;47.836;35.106;2024-02-26T00:41:41;102159.72;;;1.80;96.14
29461;BME280;16428;47.836;35.106;2024-02-26T00:44:09;102151.16;;;1.74;96.65
29461;BME280;16428;47.836;35.106;2024-02-26T00:46:36;102148.84;;;1.53;97.19
29461;BME280;16428;47.836;35.106;2024-02-26T00:49:03;102140.22;;;1.49;98.61
29461;BME280;16428;47.836;35.106;2024-02-26T00:51:30;102143.97;;;1.61;97.58
29461;BME280;16428;47.836;35.106;2024-02-26T00:53:58;102141.41;;;1.75;96.81
29461;BME280;16428;47.836;35.106;2024-02-26T00:56:25;102141.75;;;1.37;98.80
29461;BME280;16428;47.836;35.106;2024-02-26T00:58:52;102138.31;;;1.35;99.14
29461;BME280;16428;47.836;35.106;2024-02-26T01:01:19;102128.78;;;1.49;99.24
29461;BME280;16428;47.836;35.106;2024-02-26T01:03:46;102135.41;;;1.40;99.09
29461;BME280;16428;47.836;35.106;2024-02-26T01:06:13;102135.72;;;1.67;97.87
29461;BME280;16428;47.836;35.106;2024-02-26T01:08:41;102138.16;;;1.70;97.60
29461;BME280;16428;47.836;35.106;2024-02-26T01:11:08;102125.44;;;1.61;98.14
29461;BME280;16428;47.836;35.106;2024-02-26T01:13:35;102127.13;;;1.30;99.22
29461;BME280;16428;47.836;35.106;2024-02-26T01:16:02;102127.38;;;1.41;99.31
29461;BME280;16428;47.836;35.106;2024-02-26T01:18:29;102128.22;;;1.26;100.00
29461;BME280;16428;47.836;35.106;2024-02-26T01:20:57;102127.00;;;1.16;100.00
29461;BME280;16428;47.836;35.106;2024-02-26T01:23:24;102123.44;;;1.17;100.00
29461;BME280;16428;47.836;35.106;2024-02-26T01:25:51;102132.16;;;1.19;100.00
29461;BME280;16428;47.836;35.106;2024-02-26T01:28:18;102127.50;;;1.23;100.00
29461;BME280;16428;47.836;35.106;2024-02-26T01:30:45;102135.41;;;1.07;100.00
29461;BME280;16428;47.836;35.106;2024-02-26T01:33:12;102126.75;;;0.88;100.00
29461;BME280;16428;47.836;35.106;2024-02-26T01:35:39;102138.06;;;1.07;100.00
29461;BME280;16428;47.836;35.106;2024-02-26T01:38:07;102134.47;;;1.08;100.00
29461;BME280;16428;47.836;35.106;2024-02-26T01:40:34;102127.25;;;1.12;100.00
29461;BME280;16428;47.836;35.106;2024-02-26T01:43:02;102135.72;;;1.18;100.00
29461;BME280;16428;47.836;35.106;2024-02-26T01:45:29;102122.06;;;0.93;100.00
29461;BME280;16428;47.836;35.106;2024-02-26T01:47:56;102119.91;;;0.84;100.00
29461;BME280;16428;47.836;35.106;2024-02-26T01:50:24;102118.81;;;0.88;100.00
29461;BME280;16428;47.836;35.106;2024-02-26T01:52:54;102127.03;;;0.99;100.00
29461;BME280;16428;47.836;35.106;2024-02-26T01:55:22;102128.22;;;0.93;100.00
29461;BME280;16428;47.836;35.106;2024-02-26T01:57:51;102132.75;;;0.91;100.00
29461;BME280;16428;47.836;35.106;2024-02-26T02:00:20;102127.47;;;0.91;100.00
29461;BME280;16428;47.836;35.106;2024-02-26T02:02:49;102124.72;;;0.93;100.00
29461;BME280;16428;47.836;35.106;2024-02-26T02:05:17;102126.59;;;0.91;100.00
29461;BME280;16428;47.836;35.106;2024-02-26T02:07:47;102127.47;;;0.91;100.00
29461;BME280;16428;47.836;35.106;2024-02-26T02:10:16;102122.81;;;0.62;100.00
29461;BME280;16428;47.836;35.106;2024-02-26T02:12:45;102126.38;;;0.78;100.00
29461;BME280;16428;47.836;35.106;2024-02-26T02:15:12;102129.28;;;0.74;100.00
29461;BME280;16428;47.836;35.106;2024-02-26T02:17:39;102126.00;;;0.68;100.00
29461;BME280;16428;47.836;35.106;2024-02-26T02:20:15;102129.88;;;0.79;100.00
29461;BME280;16428;47.836;35.106;2024-02-26T02:22:44;102129.28;;;0.74;100.00
29461;BME280;16428;47.836;35.106;2024-02-26T02:25:12;102115.47;;;0.84;100.00
29461;BME280;16428;47.836;35.106;2024-02-26T02:27:39;102106.84;;;0.81;100.00
29461;BME280;16428;47.836;35.106;2024-02-26T02:30:07;102101.63;;;0.79;100.00
29461;BME280;16428;47.836;35.106;2024-02-26T02:32:37;102097.22;;;0.62;100.00
29461;BME280;16428;47.836;35.106;2024-02-26T02:35:07;102107.19;;;0.57;100.00
29461;BME280;16428;47.836;35.106;2024-02-26T02:37:34;102114.78;;;0.81;100.00
29461;BME280;16428;47.836;35.106;2024-02-26T02:40:01;102114.25;;;0.74;100.00
29461;BME280;16428;47.836;35.106;2024-02-26T02:42:28;102121.78;;;0.82;100.00
29461;BME280;16428;47.836;35.106;2024-02-26T02:44:56;102122.13;;;0.76;100.00
29461;BME280;16428;47.836;35.106;2024-02-26T02:47:23;102107.50;;;0.51;100.00
29461;BME280;16428;47.836;35.106;2024-02-26T02:49:51;102110.78;;;0.56;100.00
29461;BME280;16428;47.836;35.106;2024-02-26T02:52:18;102112.69;;;0.35;100.00
29461;BME280;16428;47.836;35.106;2024-02-26T02:54:45;102113.41;;;0.56;100.00
29461;BME280;16428;47.836;35.106;2024-02-26T02:57:14;102114.66;;;0.49;100.00
29461;BME280;16428;47.836;35.106;2024-02-26T02:59:41;102107.50;;;0.51;100.00
29461;BME280;16428;47.836;35.106;2024-02-26T03:02:08;102111.84;;;0.52;100.00
29461;BME280;16428;47.836;35.106;2024-02-26T03:04:35;102113.41;;;0.22;100.00
29461;BME280;16428;47.836;35.106;2024-02-26T03:07:02;102111.69;;;0.38;100.00
29461;BME280;16428;47.836;35.106;2024-02-26T03:09:30;102111.22;;;0.47;100.00
29461;BME280;16428;47.836;35.106;2024-02-26T03:11:57;102106.34;;;0.57;100.00
29461;BME280;16428;47.836;35.106;2024-02-26T03:14:24;102107.97;;;0.42;100.00
29461;BME280;16428;47.836;35.106;2024-02-26T03:16:55;102111.22;;;0.47;100.00
29461;BME280;16428;47.836;35.106;2024-02-26T03:19:22;102113.03;;;0.29;100.00
29461;BME280;16428;47.836;35.106;2024-02-26T03:21:52;102109.06;;;0.38;100.00
29461;BME280;16428;47.836;35.106;2024-02-26T03:24:19;102109.66;;;0.09;100.00
29461;BME280;16428;47.836;35.106;2024-02-26T03:26:46;102112.63;;;0.37;100.00
29461;BME280;16428;47.836;35.106;2024-02-26T03:29:13;102107.19;;;0.40;100.00
29461;BME280;16428;47.836;35.106;2024-02-26T03:31:40;102109.19;;;0.35;100.00
29461;BME280;16428;47.836;35.106;2024-02-26T03:34:07;102111.69;;;0.38;100.00
29461;BME280;16428;47.836;35.106;2024-02-26T03:36:35;102105.09;;;0.29;100.00
29461;BME280;16428;47.836;35.106;2024-02-26T03:39:02;102113.47;;;0.38;100.00
29461;BME280;16428;47.836;35.106;2024-02-26T03:41:34;102107.34;;;0.54;100.00
29461;BME280;16428;47.836;35.106;2024-02-26T03:44:02;102109.75;;;0.42;100.00
29461;BME280;16428;47.836;35.106;2024-02-26T03:46:29;102107.34;;;0.20;100.00
29461;BME280;16428;47.836;35.106;2024-02-26T03:48:56;102102.69;;;0.42;100.00
29461;BME280;16428;47.836;35.106;2024-02-26T03:51:23;102107.50;;;0.51;100.00
29461;BME280;16428;47.836;35.106;2024-02-26T03:53:50;102107.56;;;0.67;100.00
29461;BME280;16428;47.836;35.106;2024-02-26T03:56:18;102105.84;;;0.31;100.00
29461;BME280;16428;47.836;35.106;2024-02-26T03:58:44;102110.91;;;0.19;100.00
29461;BME280;16428;47.836;35.106;2024-02-26T04:01:11;102109.75;;;0.42;100.00
29461;BME280;16428;47.836;35.106;2024-02-26T04:03:38;102105.78;;;0.50;100.00
29461;BME280;16428;47.836;35.106;2024-02-26T04:06:08;102112.00;;;0.49;100.00
29461;BME280;16428;47.836;35.106;2024-02-26T04:08:37;102105.31;;;0.25;100.00
29461;BME280;16428;47.836;35.106;2024-02-26T04:11:05;102111.84;;;0.35;100.00
29461;BME280;16428;47.836;35.106;2024-02-26T04:13:34;102105.56;;;0.38;100.00
29461;BME280;16428;47.836;35.106;2024-02-26T04:16:01;102104.56;;;0.40;100.00
29461;BME280;16428;47.836;35.106;2024-02-26T04:18:29;102108.34;;;0.34;100.00
29461;BME280;16428;47.836;35.106;2024-02-26T04:20:56;102105.63;;;0.19;100.00
29461;BME280;16428;47.836;35.106;2024-02-26T04:23:24;102103.31;;;0.30;100.00
29461;BME280;16428;47.836;35.106;2024-02-26T04:25:51;102102.75;;;0.23;100.00
29461;BME280;16428;47.836;35.106;2024-02-26T04:28:20;102102.81;;;0.22;100.00
29461;BME280;16428;47.836;35.106;2024-02-26T04:30:53;102101.03;;;0.22;100.00
29461;BME280;16428;47.836;35.106;2024-02-26T04:33:20;102105.09;;;0.12;100.00
29461;BME280;16428;47.836;35.106;2024-02-26T04:35:47;102100.81;;;0.10;100.00
29461;BME280;16428;47.836;35.106;2024-02-26T04:38:14;102095.84;;;0.21;100.00
29461;BME280;16428;47.836;35.106;2024-02-26T04:40:42;102101.72;;;0.09;100.00
29461;BME280;16428;47.836;35.106;2024-02-26T04:43:09;102099.97;;;0.44;100.00
29461;BME280;16428;47.836;35.106;2024-02-26T04:45:36;102102.19;;;0.17;100.00
29461;BME280;16428;47.836;35.106;2024-02-26T04:48:03;102094.19;;;0.35;100.00
29461;BME280;16428;47.836;35.106;2024-02-26T04:50:30;102099.56;;;0.34;100.00
29461;BME280;16428;47.836;35.106;2024-02-26T04:52:57;102107.34;;;0.20;100.00
29461;BME280;16428;47.836;35.106;2024-02-26T04:55:24;102113.38;;;0.05;100.00
29461;BME280;16428;47.836;35.106;2024-02-26T04:57:51;102108.66;;;0.11;100.00
29461;BME280;16428;47.836;35.106;2024-02-26T05:00:18;102108.75;;;0.27;100.00
29461;BME280;16428;47.836;35.106;2024-02-26T05:02:45;102111.31;;;0.28;100.00
29461;BME280;16428;47.836;35.106;2024-02-26T05:05:13;102114.19;;;0.24;100.00
29461;BME280;16428;47.836;35.106;2024-02-26T05:07:40;102119.63;;;0.21;100.00
29461;BME280;16428;47.836;35.106;2024-02-26T05:10:09;102119.19;;;0.30;100.00
29461;BME280;16428;47.836;35.106;2024-02-26T05:12:36;102118.53;;;0.25;100.00
29461;BME280;16428;47.836;35.106;2024-02-26T05:15:04;102113.47;;;0.38;100.00
29461;BME280;16428;47.836;35.106;2024-02-26T05:17:31;102114.81;;;0.29;100.00
29461;BME280;16428;47.836;35.106;2024-02-26T05:19:58;102123.81;;;0.25;100.00
29461;BME280;16428;47.836;35.106;2024-02-26T05:22:25;102120.94;;;0.47;100.00
29461;BME280;16428;47.836;35.106;2024-02-26T05:24:52;102123.69;;;0.45;100.00
29461;BME280;16428;47.836;35.106;2024-02-26T05:27:20;102129.84;;;0.46;100.00
29461;BME280;16428;47.836;35.106;2024-02-26T05:29:48;102124.53;;;0.46;100.00
29461;BME280;16428;47.836;35.106;2024-02-26T05:32:15;102130.69;;;0.29;100.00
29461;BME280;16428;47.836;35.106;2024-02-26T05:34:42;102130.66;;;0.46;100.00
29461;BME280;16428;47.836;35.106;2024-02-26T05:37:09;102129.91;;;0.44;100.00
29461;BME280;16428;47.836;35.106;2024-02-26T05:39:37;102127.72;;;0.69;100.00
29461;BME280;16428;47.836;35.106;2024-02-26T05:42:04;102132.38;;;0.64;100.00
29461;BME280;16428;47.836;35.106;2024-02-26T05:44:31;102134.22;;;0.62;100.00
29461;BME280;16428;47.836;35.106;2024-02-26T05:46:58;102137.66;;;0.82;100.00
29461;BME280;16428;47.836;35.106;2024-02-26T05:49:25;102140.16;;;0.67;100.00
29461;BME280;16428;47.836;35.106;2024-02-26T05:51:52;102131.44;;;0.65;100.00
29461;BME280;16428;47.836;35.106;2024-02-26T05:54:19;102137.22;;;0.74;100.00
29461;BME280;16428;47.836;35.106;2024-02-26T05:56:46;102133.75;;;1.06;100.00
29461;BME280;16428;47.836;35.106;2024-02-26T05:59:13;102128.56;;;0.87;100.00
29461;BME280;16428;47.836;35.106;2024-02-26T06:01:42;102126.44;;;0.77;100.00
29461;BME280;16428;47.836;35.106;2024-02-26T06:04:09;102130.50;;;0.84;100.00
29461;BME280;16428;47.836;35.106;2024-02-26T06:06:37;102131.50;;;0.81;100.00
29461;BME280;16428;47.836;35.106;2024-02-26T06:09:09;102135.69;;;1.02;100.00
29461;BME280;16428;47.836;35.106;2024-02-26T06:11:38;102134.44;;;0.92;100.00
29461;BME280;16428;47.836;35.106;2024-02-26T06:14:05;102129.97;;;1.10;100.00
29461;BME280;16428;47.836;35.106;2024-02-26T06:16:32;102135.63;;;0.87;100.00
29461;BME280;16428;47.836;35.106;2024-02-26T06:19:00;102142.03;;;1.16;100.00
29461;BME280;16428;47.836;35.106;2024-02-26T06:21:28;102139.78;;;1.08;100.00
29461;BME280;16428;47.836;35.106;2024-02-26T06:23:55;102136.00;;;0.96;100.00
29461;BME280;16428;47.836;35.106;2024-02-26T06:26:22;102142.53;;;1.22;100.00
29461;BME280;16428;47.836;35.106;2024-02-26T06:28:49;102143.53;;;1.04;100.00
29461;BME280;16428;47.836;35.106;2024-02-26T06:31:16;102136.22;;;0.92;100.00
29461;BME280;16428;47.836;35.106;2024-02-26T06:33:44;102146.00;;;1.07;100.00
29461;BME280;16428;47.836;35.106;2024-02-26T06:36:12;102142.56;;;1.38;100.00
29461;BME280;16428;47.836;35.106;2024-02-26T06:38:39;102161.72;;;1.43;100.00
29461;BME280;16428;47.836;35.106;2024-02-26T06:41:07;102161.53;;;1.30;100.00
29461;BME280;16428;47.836;35.106;2024-02-26T06:43:34;102168.06;;;1.23;100.00
29461;BME280;16428;47.836;35.106;2024-02-26T06:46:02;102157.44;;;1.40;100.00
29461;BME280;16428;47.836;35.106;2024-02-26T06:48:29;102153.88;;;1.57;100.00
29461;BME280;16428;47.836;35.106;2024-02-26T06:50:57;102154.75;;;1.58;100.00
29461;BME280;16428;47.836;35.106;2024-02-26T06:53:24;102156.19;;;1.48;100.00
29461;BME280;16428;47.836;35.106;2024-02-26T06:55:51;102155.56;;;1.42;100.00
29461;BME280;16428;47.836;35.106;2024-02-26T06:58:18;102160.28;;;1.85;100.00
29461;BME280;16428;47.836;35.106;2024-02-26T07:00:47;102156.28;;;1.62;100.00
29461;BME280;16428;47.836;35.106;2024-02-26T07:03:14;102153.13;;;1.71;100.00
29461;BME280;16428;47.836;35.106;2024-02-26T07:05:42;102142.78;;;2.14;100.00
29461;BME280;16428;47.836;35.106;2024-02-26T07:08:09;102148.91;;;2.14;100.00
29461;BME280;16428;47.836;35.106;2024-02-26T07:10:36;102148.06;;;2.14;100.00
29461;BME280;16428;47.836;35.106;2024-02-26T07:13:03;102147.91;;;2.01;99.33
29461;BME280;16428;47.836;35.106;2024-02-26T07:15:30;102159.19;;;2.50;97.82
29461;BME280;16428;47.836;35.106;2024-02-26T07:17:57;102155.50;;;2.53;98.00
29461;BME280;16428;47.836;35.106;2024-02-26T07:20:30;102159.00;;;2.23;98.49
29461;BME280;16428;47.836;35.106;2024-02-26T07:22:57;102150.97;;;2.25;98.88
29461;BME280;16428;47.836;35.106;2024-02-26T07:25:25;102167.69;;;2.41;97.76
29461;BME280;16428;47.836;35.106;2024-02-26T07:27:52;102169.78;;;2.80;96.97
29461;BME280;16428;47.836;35.106;2024-02-26T07:30:19;102172.38;;;2.96;94.70
29461;BME280;16428;47.836;35.106;2024-02-26T07:32:46;102175.47;;;3.32;93.11
29461;BME280;16428;47.836;35.106;2024-02-26T07:35:17;102167.84;;;3.26;91.81
29461;BME280;16428;47.836;35.106;2024-02-26T07:37:47;102173.34;;;3.51;90.78
29461;BME280;16428;47.836;35.106;2024-02-26T07:40:15;102170.91;;;3.34;90.43
29461;BME280;16428;47.836;35.106;2024-02-26T07:42:42;102164.97;;;3.72;89.41
29461;BME280;16428;47.836;35.106;2024-02-26T07:45:09;102174.31;;;3.36;90.94
29461;BME280;16428;47.836;35.106;2024-02-26T07:47:37;102169.19;;;3.33;91.55
29461;BME280;16428;47.836;35.106;2024-02-26T07:50:08;102178.22;;;3.45;91.15
29461;BME280;16428;47.836;35.106;2024-02-26T07:52:36;102168.44;;;3.45;90.51
29461;BME280;16428;47.836;35.106;2024-02-26T07:55:03;102171.66;;;3.50;90.58
29461;BME280;16428;47.836;35.106;2024-02-26T07:57:33;102169.38;;;3.59;90.32
29461;BME280;16428;47.836;35.106;2024-02-26T08:00:04;102169.13;;;3.90;88.95
29461;BME280;16428;47.836;35.106;2024-02-26T08:02:35;102165.91;;;4.26;86.69
29461;BME280;16428;47.836;35.106;2024-02-26T08:05:02;102161.19;;;4.30;86.63
29461;BME280;16428;47.836;35.106;2024-02-26T08:07:30;102163.44;;;4.75;82.68
29461;BME280;16428;47.836;35.106;2024-02-26T08:09:57;102154.94;;;4.70;82.87
29461;BME280;16428;47.836;35.106;2024-02-26T08:12:24;102161.69;;;5.14;80.67
29461;BME280;16428;47.836;35.106;2024-02-26T08:14:51;102156.13;;;4.91;80.73
29461;BME280;16428;47.836;35.106;2024-02-26T08:17:18;102156.78;;;5.08;80.17
29461;BME280;16428;47.836;35.106;2024-02-26T08:19:45;102157.09;;;5.41;78.13
29461;BME280;16428;47.836;35.106;2024-02-26T08:22:13;102162.38;;;5.54;76.65
29461;BME280;16428;47.836;35.106;2024-02-26T08:24:43;102158.69;;;5.44;76.85
29461;BME280;16428;47.836;35.106;2024-02-26T08:27:10;102157.03;;;5.66;76.42
29461;BME280;16428;47.836;35.106;2024-02-26T08:29:37;102158.97;;;5.52;77.09
29461;BME280;16428;47.836;35.106;2024-02-26T08:32:05;102155.50;;;5.88;74.88
29461;BME280;16428;47.836;35.106;2024-02-26T08:34:34;102150.78;;;6.04;72.86
29461;BME280;16428;47.836;35.106;2024-02-26T08:37:02;102150.78;;;6.04;72.56
29461;BME280;16428;47.836;35.106;2024-02-26T08:39:29;102142.25;;;5.99;72.63
29461;BME280;16428;47.836;35.106;2024-02-26T08:41:56;102147.91;;;5.82;73.64
29461;BME280;16428;47.836;35.106;2024-02-26T08:44:23;102148.75;;;5.58;74.30
29461;BME280;16428;47.836;35.106;2024-02-26T08:46:51;102152.06;;;5.86;73.58
29461;BME280;16428;47.836;35.106;2024-02-26T08:49:18;102139.94;;;5.82;72.51
29461;BME280;16428;47.836;35.106;2024-02-26T08:51:45;102135.69;;;5.92;73.19
29461;BME280;16428;47.836;35.106;2024-02-26T08:54:12;102135.19;;;6.11;71.68
29461;BME280;16428;47.836;35.106;2024-02-26T08:56:40;102134.03;;;6.26;70.47
29461;BME280;16428;47.836;35.106;2024-02-26T08:59:08;102131.41;;;6.72;68.41
29461;BME280;16428;47.836;35.106;2024-02-26T09:01:35;102130.41;;;6.62;69.22
29461;BME280;16428;47.836;35.106;2024-02-26T09:04:03;102130.00;;;6.20;68.32
29461;BME280;16428;47.836;35.106;2024-02-26T09:06:30;102122.56;;;5.89;71.03
29461;BME280;16428;47.836;35.106;2024-02-26T09:08:58;102123.66;;;6.10;70.67
29461;BME280;16428;47.836;35.106;2024-02-26T09:11:28;102136.03;;;6.81;68.71
29461;BME280;16428;47.836;35.106;2024-02-26T09:13:55;102125.34;;;6.70;67.64
29461;BME280;16428;47.836;35.106;2024-02-26T09:16:22;102127.38;;;6.66;66.71
29461;BME280;16428;47.836;35.106;2024-02-26T09:18:49;102124.56;;;7.25;65.49
29461;BME280;16428;47.836;35.106;2024-02-26T09:21:16;102127.56;;;7.21;66.79
29461;BME280;16428;47.836;35.106;2024-02-26T09:23:50;102121.84;;;7.03;65.63
29461;BME280;16428;47.836;35.106;2024-02-26T09:26:18;102116.88;;;6.98;65.71
29461;BME280;16428;47.836;35.106;2024-02-26T09:28:45;102121.22;;;6.88;66.05
29461;BME280;16428;47.836;35.106;2024-02-26T09:31:12;102122.00;;;7.57;63.02
29461;BME280;16428;47.836;35.106;2024-02-26T09:33:42;102111.63;;;7.75;61.18
29461;BME280;16428;47.836;35.106;2024-02-26T09:36:09;102111.25;;;7.91;60.58
29461;BME280;16428;47.836;35.106;2024-02-26T09:38:37;102106.63;;;7.82;60.80
29461;BME280;16428;47.836;35.106;2024-02-26T09:41:22;102101.53;;;8.10;61.64
29461;BME280;16428;47.836;35.106;2024-02-26T09:43:51;102111.50;;;8.20;61.86
29461;BME280;16428;47.836;35.106;2024-02-26T09:46:21;102109.88;;;8.28;59.04
29461;BME280;16428;47.836;35.106;2024-02-26T09:48:48;102105.25;;;8.30;59.64
29461;BME280;16428;47.836;35.106;2024-02-26T09:51:16;102101.97;;;8.27;58.21
29461;BME280;16428;47.836;35.106;2024-02-26T09:53:46;102099.81;;;8.32;58.72
29461;BME280;16428;47.836;35.106;2024-02-26T09:56:15;102111.63;;;9.12;57.39
29461;BME280;16428;47.836;35.106;2024-02-26T09:58:42;102095.97;;;8.66;57.69
29461;BME280;16428;47.836;35.106;2024-02-26T10:01:13;102092.75;;;8.93;57.72
29461;BME280;16428;47.836;35.106;2024-02-26T10:03:43;102085.13;;;9.59;54.37
29461;BME280;16428;47.836;35.106;2024-02-26T10:06:11;102089.72;;;9.38;54.86
29461;BME280;16428;47.836;35.106;2024-02-26T10:08:39;102083.22;;;9.31;55.56
29461;BME280;16428;47.836;35.106;2024-02-26T10:11:07;102079.06;;;9.67;52.41
29461;BME280;16428;47.836;35.106;2024-02-26T10:13:35;102074.31;;;9.90;52.81
29461;BME280;16428;47.836;35.106;2024-02-26T10:16:06;102066.41;;;10.17;52.19
29461;BME280;16428;47.836;35.106;2024-02-26T10:18:54;102061.00;;;9.78;52.58
29461;BME280;16428;47.836;35.106;2024-02-26T10:21:26;102057.28;;;9.50;53.78
29461;BME280;16428;47.836;35.106;2024-02-26T10:23:53;102066.66;;;9.75;52.59
29461;BME280;16428;47.836;35.106;2024-02-26T10:26:21;102064.13;;;9.83;54.20
29461;BME280;16428;47.836;35.106;2024-02-26T10:28:49;102071.47;;;10.10;52.73
29461;BME280;16428;47.836;35.106;2024-02-26T10:31:21;102057.66;;;10.15;51.69
29461;BME280;16428;47.836;35.106;2024-02-26T10:33:48;102056.78;;;10.63;51.33
29461;BME280;16428;47.836;35.106;2024-02-26T10:36:16;102052.34;;;10.81;49.95
29461;BME280;16428;47.836;35.106;2024-02-26T10:38:43;102051.47;;;10.90;48.95
29461;BME280;16428;47.836;35.106;2024-02-26T10:41:13;102049.22;;;10.85;50.13
29461;BME280;16428;47.836;35.106;2024-02-26T10:43:42;102040.66;;;10.63;51.33
29461;BME280;16428;47.836;35.106;2024-02-26T10:46:10;102038.00;;;11.00;51.28
29461;BME280;16428;47.836;35.106;2024-02-26T10:48:37;102043.03;;;11.12;49.24
29461;BME280;16428;47.836;35.106;2024-02-26T10:51:04;102030.38;;;11.50;47.09
29461;BME280;16428;47.836;35.106;2024-02-26T10:53:33;102034.66;;;11.15;48.34
29461;BME280;16428;47.836;35.106;2024-02-26T10:56:03;102028.09;;;11.55;47.67
29461;BME280;16428;47.836;35.106;2024-02-26T10:58:33;102029.16;;;11.62;47.01
29461;BME280;16428;47.836;35.106;2024-02-26T11:01:00;102024.94;;;12.05;45.64
29461;BME280;16428;47.836;35.106;2024-02-26T11:03:29;102016.53;;;11.62;45.87
29461;BME280;16428;47.836;35.106;2024-02-26T11:06:03;102011.09;;;11.54;46.53
29461;BME280;16428;47.836;35.106;2024-02-26T11:08:32;102002.47;;;11.51;46.04
29461;BME280;16428;47.836;35.106;2024-02-26T11:10:59;102001.66;;;11.68;46.20
29461;BME280;16428;47.836;35.106;2024-02-26T11:13:28;102002.44;;;12.14;45.59
29461;BME280;16428;47.836;35.106;2024-02-26T11:16:01;101997.38;;;11.48;46.49
29461;BME280;16428;47.836;35.106;2024-02-26T11:18:29;101998.56;;;11.63;45.16
29461;BME280;16428;47.836;35.106;2024-02-26T11:20:59;101992.88;;;11.66;47.22
29461;BME280;16428;47.836;35.106;2024-02-26T11:23:27;101988.81;;;11.97;45.68
29461;BME280;16428;47.836;35.106;2024-02-26T11:25:56;101982.97;;;12.02;44.31
29461;BME280;16428;47.836;35.106;2024-02-26T11:28:28;101984.81;;;12.19;45.01
29461;BME280;16428;47.836;35.106;2024-02-26T11:30:57;101977.34;;;11.95;44.24
29461;BME280;16428;47.836;35.106;2024-02-26T11:33:26;101971.69;;;11.81;44.96
29461;BME280;16428;47.836;35.106;2024-02-26T11:35:55;101972.06;;;12.55;43.22
29461;BME280;16428;47.836;35.106;2024-02-26T11:38:26;101975.50;;;12.14;44.14
29461;BME280;16428;47.836;35.106;2024-02-26T11:40:53;101970.63;;;12.35;43.51
29461;BME280;16428;47.836;35.106;2024-02-26T11:43:53;101966.03;;;12.10;43.48
29461;BME280;16428;47.836;35.106;2024-02-26T11:46:34;101970.22;;;12.30;43.62
29461;BME280;16428;47.836;35.106;2024-02-26T11:51:56;101964.19;;;12.62;42.07
29461;BME280;16428;47.836;35.106;2024-02-26T11:54:49;101960.53;;;12.37;42.69
29461;BME280;16428;47.836;35.106;2024-02-26T12:02:42;101959.50;;;12.38;42.81
29461;BME280;16428;47.836;35.106;2024-02-26T12:05:19;101956.97;;;12.62;42.02
29461;BME280;16428;47.836;35.106;2024-02-26T12:08:08;101957.53;;;12.74;41.72
29461;BME280;16428;47.836;35.106;2024-02-26T12:10:36;101957.25;;;12.51;43.24
29461;BME280;16428;47.836;35.106;2024-02-26T12:13:14;101963.84;;;12.91;41.92
29461;BME280;16428;47.836;35.106;2024-02-26T12:15:58;101957.47;;;13.00;41.75
29461;BME280;16428;47.836;35.106;2024-02-26T12:18:28;101953.75;;;13.01;42.01
29461;BME280;16428;47.836;35.106;2024-02-26T12:21:03;101946.66;;;13.00;41.02
29461;BME280;16428;47.836;35.106;2024-02-26T12:23:31;101949.16;;;13.19;40.70
29461;BME280;16428;47.836;35.106;2024-02-26T12:26:00;101945.75;;;12.83;41.83
29461;BME280;16428;47.836;35.106;2024-02-26T12:28:29;101946.72;;;13.08;41.67
29461;BME280;16428;47.836;35.106;2024-02-26T12:30:57;101944.03;;;13.08;41.53
29461;BME280;16428;47.836;35.106;2024-02-26T12:33:27;101944.78;;;13.34;41.51
29461;BME280;16428;47.836;35.106;2024-02-26T12:35:56;101951.91;;;13.52;39.34
29461;BME280;16428;47.836;35.106;2024-02-26T12:38:24;101944.16;;;14.22;38.64
29461;BME280;16428;47.836;35.106;2024-02-26T12:40:51;101947.22;;;14.19;39.00
29461;BME280;16428;47.836;35.106;2024-02-26T12:43:18;101947.84;;;14.37;38.20
29461;BME280;16428;47.836;35.106;2024-02-26T12:45:45;101951.94;;;13.68;39.05
29461;BME280;16428;47.836;35.106;2024-02-26T12:48:14;101952.06;;;14.39;38.45
29461;BME280;16428;47.836;35.106;2024-02-26T12:50:46;101952.59;;;14.27;37.65
29461;BME280;16428;47.836;35.106;2024-02-26T12:53:14;101947.91;;;13.96;37.92
29461;BME280;16428;47.836;35.106;2024-02-26T12:55:42;101938.41;;;13.52;38.59
29461;BME280;16428;47.836;35.106;2024-02-26T12:58:10;101939.44;;;14.07;37.97